Observations for Trim Market St
| Time | AQI | Temp °C | Hum % | Pres Pa | CO μg/m³ | H₂S μg/m³ | NO μg/m³ | NO₂ μg/m³ | O₃ μg/m³ | SO₂ μg/m³ | PM1 μg/m³ | PM2.5 μg/m³ | PM10 μg/m³ |
|---|---|---|---|---|---|---|---|---|---|---|---|---|---|
| Saturday 11 July 2026 | |||||||||||||
| 21:00 | 1 | 24.9 | 59 | 57,785 | 0 | 0 | 0 | 10.3 | 17.35 | 0 | 4.28 | 8.06 | 13.05 |
| 20:59 | 1 | 25 | 59 | 57,789 | 0 | 1.2 | 0 | 10.68 | 17.93 | 0 | 7.84 | 10.58 | 15.12 |
| 20:56 | 1 | 25 | 59 | 57,798 | 0 | 1.39 | 0 | 13 | 13.71 | 0 | 6.41 | 9.59 | 13.06 |
| 20:55 | 1 | 25 | 59 | 57,802 | 0 | 2.02 | 0 | 14.11 | 19.75 | 0 | 7.13 | 10.09 | 15.14 |
| 20:54 | 1 | 25.1 | 59 | 57,810 | 0.1 | 0.08 | 0 | 14.1 | 14.33 | 0 | 6.41 | 8.6 | 12.38 |
| 20:53 | 1 | 25.1 | 59 | 57,815 | 0 | 0 | 0 | 11.3 | 15.82 | 0 | 6.41 | 8.6 | 12.38 |
| 20:52 | 1 | 25.1 | 59 | 57,820 | 0 | 0 | 0 | 12.41 | 14.15 | 0 | 6.41 | 9.61 | 13.77 |
| 20:49 | 1 | 25.2 | 58 | 57,831 | 0 | 0 | 0 | 14.72 | 20.25 | 0 | 6.41 | 8.12 | 11 |
| 20:48 | 1 | 25.2 | 58 | 57,836 | 0 | 0 | 0 | 10.43 | 8.12 | 0 | 6.41 | 8.12 | 11.01 |
| 20:46 | 1 | 25.3 | 58 | 57,849 | 0 | 3.13 | 0 | 12.42 | 36.67 | 0 | 5.7 | 9.14 | 12.41 |
| 20:41 | 1 | 25.5 | 58 | 57,870 | 0 | 0.12 | 0 | 8.43 | 13.64 | 0 | 7.13 | 9.68 | 14.53 |
| 20:34 | 1 | 25.7 | 57 | 57,885 | 0 | 0 | 0 | 13.89 | 19.16 | 0 | 5.7 | 9.74 | 14.59 |
| 20:33 | 1 | 25.8 | 57 | 57,887 | 0 | 0 | 2.3 | 39.77 | 5.02 | 0 | 4.99 | 7.73 | 11.06 |
| 20:32 | 1 | 25.8 | 56 | 57,889 | 0 | 0 | 0 | 10.08 | 15.18 | 0 | 6.41 | 9.25 | 13.18 |
| 20:31 | 1 | 25.8 | 56 | 57,889 | 0 | 0 | 0 | 13.39 | 22.46 | 0 | 7.13 | 9.25 | 14.6 |
| 20:30 | 1 | 25.9 | 56 | 57,891 | 0 | 0 | 0 | 9.77 | 12.09 | 0 | 5.7 | 9.25 | 13.19 |
| 20:29 | 1 | 25.9 | 56 | 57,891 | 0 | 0 | 0 | 23.27 | 4.26 | 0 | 5.7 | 8.24 | 12.48 |
| 20:28 | 1 | 25.9 | 56 | 57,893 | 0 | 0.98 | 0 | 13.29 | 25.11 | 0 | 4.99 | 7.75 | 10.36 |
| 20:27 | 1 | 26 | 56 | 57,895 | 0 | 0.2 | 0 | 9.27 | 14.64 | 0 | 6.41 | 9.78 | 14.62 |
| 20:26 | 1 | 26 | 56 | 57,897 | 0 | 0 | 0 | 9.19 | 20.46 | 0 | 5.7 | 10.8 | 14.63 |